EDT,Max TemperatureF,Mean TemperatureF,Min TemperatureF,Max Dew PointF,MeanDew PointF,Min DewpointF,Max Humidity, Mean Humidity, Min Humidity, Max Sea Level PressureIn, Mean Sea Level PressureIn, Min Sea Level PressureIn, Max VisibilityMiles, Mean VisibilityMiles, Min VisibilityMiles, Max Wind SpeedMPH, Mean Wind SpeedMPH, Max Gust SpeedMPH,PrecipitationIn, CloudCover, Events, WindDirDegrees
2013-5-1,75,68,61,65,59,57,90,77,64,30.29,30.20,30.12,10,10,5,17,9,24,0.03,8,Rain,33
2013-5-2,73,65,56,61,57,50,90,71,51,30.32,30.28,30.24,10,9,2,17,10,23,T,6,Rain,45
2013-5-3,72,64,55,55,51,41,93,69,44,30.23,30.20,30.18,10,10,8,22,14,30,0.00,4,,48
2013-5-4,68,62,55,56,52,48,83,71,58,30.18,30.12,30.08,10,10,10,21,14,25,T,8,Rain,43
2013-5-5,71,63,55,61,56,50,90,80,70,30.09,30.04,30.01,10,9,2,18,10,24,0.09,8,Rain,64
2013-5-6,74,68,62,65,62,59,93,81,68,30.00,29.95,29.90,10,9,2,24,8,33,0.43,6,Rain-Thunderstorm,119
2013-5-7,75,63,51,61,54,49,100,72,44,29.99,29.92,29.88,10,7,0,16,4,22,0.05,2,Fog-Rain,187
2013-5-8,78,64,50,58,52,48,96,68,40,30.04,29.99,29.96,10,7,0,16,7,21,0.00,2,Fog,197
2013-5-9,83,72,60,61,58,54,90,64,37,30.09,30.04,29.99,10,10,6,14,3,17,0.00,2,,269
2013-5-10,88,73,58,65,59,55,90,61,31,30.10,30.06,30.01,10,9,7,18,7,24,0.00,0,,191
2013-5-11,86,78,70,70,66,62,84,70,55,30.03,29.93,29.85,10,8,0,29,9,37,0.50,3,Rain-Thunderstorm,208
2013-5-12,79,72,64,64,56,44,84,60,35,30.01,29.87,29.81,10,10,9,15,9,,0.00,3,,306
2013-5-13,71,61,50,47,41,32,71,50,28,30.17,30.07,30.01,10,10,10,17,9,23,T,3,,356
2013-5-14,72,59,45,46,38,31,86,55,24,30.27,30.20,30.15,10,10,10,16,6,22,T,1,Rain,308
2013-5-15,88,73,58,62,56,47,80,60,39,30.15,30.05,29.94,10,10,10,21,9,30,0.00,0,,212
2013-5-16,91,78,65,64,60,56,84,58,32,29.99,29.96,29.91,10,10,10,17,7,22,0.00,0,,240
2013-5-17,89,79,69,67,64,59,84,62,39,30.16,30.07,29.99,10,10,9,13,5,17,0.00,1,Thunderstorm,172
2013-5-18,84,76,67,68,66,63,90,73,55,30.19,30.16,30.13,10,9,2,20,5,24,0.11,3,Rain-Thunderstorm,170
2013-5-19,86,75,64,69,64,63,93,71,48,30.19,30.16,30.12,10,5,0,15,6,20,0.00,3,Fog,175
2013-5-20,82,76,69,70,67,65,90,74,58,30.17,30.12,30.09,10,9,1,14,7,20,0.18,3,Rain,188
2013-5-21,84,77,69,71,68,66,93,76,58,30.10,30.06,30.01,10,10,10,18,8,28,0.06,2,Rain,189
2013-5-22,86,78,70,69,68,66,93,74,55,30.07,30.03,30.00,10,10,8,18,8,26,0.00,1,,193
2013-5-23,84,76,67,72,69,65,93,78,62,30.02,29.94,29.86,10,9,2,17,6,23,0.38,5,Rain,184
2013-5-24,79,69,58,70,61,41,97,69,40,30.16,29.90,29.79,10,8,1,20,10,28,0.00,4,,294
2013-5-25,74,62,50,50,41,36,83,56,29,30.26,30.20,30.15,10,10,10,16,8,22,0.00,0,,332
2013-5-26,77,63,48,51,47,40,89,58,27,30.26,30.22,30.17,10,10,10,12,3,14,0.00,1,,356
2013-5-27,81,65,48,59,48,39,90,58,25,30.31,30.27,30.22,10,9,0,13,3,17,0.00,1,Fog,127
2013-5-28,85,70,54,66,59,53,93,67,40,30.29,30.25,30.22,10,10,10,15,5,22,0.00,0,,180
2013-5-29,87,75,62,67,63,61,93,69,45,30.29,30.24,30.22,10,7,0,15,6,22,T,1,Fog-Rain,203
2013-5-30,88,74,60,69,64,57,93,72,50,30.31,30.26,30.22,10,8,1,14,4,18,0.00,1,Fog,194
2013-5-31,88,75,62,71,65,62,93,72,50,30.27,30.22,30.17,10,5,0,14,4,18,0.00,2,Fog,167